sensor_id;sensor_type;location;lat;lon;timestamp;pressure;altitude;pressure_sealevel;temperature;humidity
77723;BME280;67811;42.656;23.394;2023-05-10T00:01:00;95336.69;;;8.19;90.48
77723;BME280;67811;42.656;23.394;2023-05-10T00:03:25;95335.38;;;8.15;90.47
77723;BME280;67811;42.656;23.394;2023-05-10T00:05:51;95334.72;;;8.13;90.19
77723;BME280;67811;42.656;23.394;2023-05-10T00:08:16;95334.03;;;8.11;90.34
77723;BME280;67811;42.656;23.394;2023-05-10T00:10:41;95330.25;;;8.14;90.92
77723;BME280;67811;42.656;23.394;2023-05-10T00:13:06;95334.03;;;8.11;90.21
77723;BME280;67811;42.656;23.394;2023-05-10T00:15:32;95327.59;;;7.98;90.18
77723;BME280;67811;42.656;23.394;2023-05-10T00:17:57;95325.63;;;8.08;90.74
77723;BME280;67811;42.656;23.394;2023-05-10T00:20:22;95330.75;;;8.09;90.58
77723;BME280;67811;42.656;23.394;2023-05-10T00:22:48;95328.41;;;8.06;90.19
77723;BME280;67811;42.656;23.394;2023-05-10T00:25:13;95332.88;;;7.98;90.51
77723;BME280;67811;42.656;23.394;2023-05-10T00:27:38;95321.31;;;7.99;90.57
77723;BME280;67811;42.656;23.394;2023-05-10T00:30:04;95323.94;;;7.90;90.29
77723;BME280;67811;42.656;23.394;2023-05-10T00:32:30;95315.53;;;7.87;90.48
77723;BME280;67811;42.656;23.394;2023-05-10T00:34:55;95322.47;;;7.96;90.71
77723;BME280;67811;42.656;23.394;2023-05-10T00:37:20;95314.53;;;7.96;90.70
77723;BME280;67811;42.656;23.394;2023-05-10T00:39:45;95316.34;;;7.87;90.41
77723;BME280;67811;42.656;23.394;2023-05-10T00:42:11;95312.72;;;7.88;90.81
77723;BME280;67811;42.656;23.394;2023-05-10T00:44:36;95316.19;;;7.89;90.72
77723;BME280;67811;42.656;23.394;2023-05-10T00:47:01;95313.38;;;7.90;90.62
77723;BME280;67811;42.656;23.394;2023-05-10T00:49:27;95312.75;;;7.97;90.50
77723;BME280;67811;42.656;23.394;2023-05-10T00:51:53;95315.06;;;7.91;90.25
77723;BME280;67811;42.656;23.394;2023-05-10T00:54:18;95305.31;;;7.92;90.60
77723;BME280;67811;42.656;23.394;2023-05-10T00:56:44;95305.47;;;7.90;90.37
77723;BME280;67811;42.656;23.394;2023-05-10T00:59:09;95304.97;;;7.87;90.12
77723;BME280;67811;42.656;23.394;2023-05-10T01:01:35;95308.09;;;7.82;90.25
77723;BME280;67811;42.656;23.394;2023-05-10T01:04:01;95304.66;;;7.82;90.19
77723;BME280;67811;42.656;23.394;2023-05-10T01:06:26;95299.19;;;7.83;89.84
77723;BME280;67811;42.656;23.394;2023-05-10T01:08:52;95305.63;;;7.81;89.76
77723;BME280;67811;42.656;23.394;2023-05-10T01:11:17;95300.50;;;7.79;89.05
77723;BME280;67811;42.656;23.394;2023-05-10T01:13:43;95301.16;;;7.73;89.10
77723;BME280;67811;42.656;23.394;2023-05-10T01:16:12;95292.94;;;7.76;89.67
77723;BME280;67811;42.656;23.394;2023-05-10T01:18:39;95304.63;;;7.74;89.45
77723;BME280;67811;42.656;23.394;2023-05-10T01:32:03;95293.25;;;7.65;87.82
77723;BME280;67811;42.656;23.394;2023-05-10T01:34:42;95291.91;;;7.69;87.08
77723;BME280;67811;42.656;23.394;2023-05-10T01:37:22;95290.13;;;7.70;85.89
77723;BME280;67811;42.656;23.394;2023-05-10T01:40:00;95291.75;;;7.71;87.04
77723;BME280;67811;42.656;23.394;2023-05-10T01:42:31;95276.41;;;7.74;87.59
77723;BME280;67811;42.656;23.394;2023-05-10T01:45:14;95283.50;;;7.74;87.63
77723;BME280;67811;42.656;23.394;2023-05-10T01:47:44;95281.56;;;7.76;87.25
77723;BME280;67811;42.656;23.394;2023-05-10T01:50:19;95279.22;;;7.73;86.76
77723;BME280;67811;42.656;23.394;2023-05-10T01:52:50;95281.69;;;7.66;85.90
77723;BME280;67811;42.656;23.394;2023-05-10T01:55:18;95281.34;;;7.69;85.14
77723;BME280;67811;42.656;23.394;2023-05-10T01:57:46;95274.09;;;7.63;84.56
77723;BME280;67811;42.656;23.394;2023-05-10T02:00:14;95282.50;;;7.58;83.81
77723;BME280;67811;42.656;23.394;2023-05-10T02:02:44;95284.50;;;7.64;83.46
77723;BME280;67811;42.656;23.394;2023-05-10T02:05:12;95280.53;;;7.69;84.26
77723;BME280;67811;42.656;23.394;2023-05-10T02:07:38;95295.06;;;7.64;84.43
77723;BME280;67811;42.656;23.394;2023-05-10T02:10:05;95287.09;;;7.56;84.51
77723;BME280;67811;42.656;23.394;2023-05-10T02:12:45;95288.91;;;7.48;85.26
77723;BME280;67811;42.656;23.394;2023-05-10T02:15:12;95296.97;;;7.46;85.28
77723;BME280;67811;42.656;23.394;2023-05-10T02:17:42;95297.44;;;7.42;84.57
77723;BME280;67811;42.656;23.394;2023-05-10T02:20:08;95299.06;;;7.34;84.17
77723;BME280;67811;42.656;23.394;2023-05-10T02:22:35;95298.88;;;7.28;84.27
77723;BME280;67811;42.656;23.394;2023-05-10T02:25:02;95301.16;;;7.23;83.55
77723;BME280;67811;42.656;23.394;2023-05-10T02:27:28;95295.66;;;7.08;83.50
77723;BME280;67811;42.656;23.394;2023-05-10T02:29:54;95292.19;;;6.99;82.40
77723;BME280;67811;42.656;23.394;2023-05-10T02:32:21;95298.75;;;6.95;83.55
77723;BME280;67811;42.656;23.394;2023-05-10T02:34:48;95306.84;;;7.02;84.80
77723;BME280;67811;42.656;23.394;2023-05-10T02:37:15;95302.03;;;6.97;84.24
77723;BME280;67811;42.656;23.394;2023-05-10T02:39:41;95300.25;;;6.98;82.35
77723;BME280;67811;42.656;23.394;2023-05-10T02:42:06;95306.00;;;6.93;82.22
77723;BME280;67811;42.656;23.394;2023-05-10T02:44:33;95301.19;;;6.89;80.91
77723;BME280;67811;42.656;23.394;2023-05-10T02:47:00;95305.28;;;6.83;81.27
77723;BME280;67811;42.656;23.394;2023-05-10T02:49:25;95297.00;;;6.78;81.48
77723;BME280;67811;42.656;23.394;2023-05-10T02:51:56;95300.75;;;6.75;82.04
77723;BME280;67811;42.656;23.394;2023-05-10T02:54:30;95296.28;;;6.68;82.02
77723;BME280;67811;42.656;23.394;2023-05-10T02:56:58;95285.56;;;6.61;81.72
77723;BME280;67811;42.656;23.394;2023-05-10T02:59:23;95290.66;;;6.63;81.07
77723;BME280;67811;42.656;23.394;2023-05-10T03:01:48;95290.38;;;6.66;81.92
77723;BME280;67811;42.656;23.394;2023-05-10T03:04:14;95297.09;;;6.68;82.55
77723;BME280;67811;42.656;23.394;2023-05-10T03:06:39;95289.38;;;6.67;82.10
77723;BME280;67811;42.656;23.394;2023-05-10T03:09:05;95296.44;;;6.66;82.12
77723;BME280;67811;42.656;23.394;2023-05-10T03:17:15;95299.63;;;6.52;81.80
77723;BME280;67811;42.656;23.394;2023-05-10T03:22:13;95301.97;;;6.55;83.34
77723;BME280;67811;42.656;23.394;2023-05-10T03:24:45;95303.66;;;6.64;82.50
77723;BME280;67811;42.656;23.394;2023-05-10T03:27:11;95308.38;;;6.78;82.78
77723;BME280;67811;42.656;23.394;2023-05-10T03:29:38;95304.38;;;6.74;80.44
77723;BME280;67811;42.656;23.394;2023-05-10T03:32:04;95305.66;;;6.70;80.02
77723;BME280;67811;42.656;23.394;2023-05-10T03:34:30;95299.28;;;6.73;79.76
77723;BME280;67811;42.656;23.394;2023-05-10T03:36:55;95299.13;;;6.74;79.40
77723;BME280;67811;42.656;23.394;2023-05-10T03:39:21;95304.47;;;6.65;79.20
77723;BME280;67811;42.656;23.394;2023-05-10T03:41:46;95303.53;;;6.66;78.97
77723;BME280;67811;42.656;23.394;2023-05-10T03:44:11;95312.72;;;6.62;79.66
77723;BME280;67811;42.656;23.394;2023-05-10T03:46:36;95302.44;;;6.50;79.25
77723;BME280;67811;42.656;23.394;2023-05-10T03:49:02;95304.19;;;6.94;80.55
77723;BME280;67811;42.656;23.394;2023-05-10T03:51:27;95306.06;;;7.09;81.13
77723;BME280;67811;42.656;23.394;2023-05-10T03:53:52;95313.94;;;7.52;79.27
77723;BME280;67811;42.656;23.394;2023-05-10T03:56:17;95306.00;;;7.01;75.54
77723;BME280;67811;42.656;23.394;2023-05-10T03:58:43;95303.81;;;7.23;76.26
77723;BME280;67811;42.656;23.394;2023-05-10T04:01:08;95302.88;;;7.32;77.72
77723;BME280;67811;42.656;23.394;2023-05-10T04:03:33;95292.66;;;7.37;75.99
77723;BME280;67811;42.656;23.394;2023-05-10T04:06:02;95315.59;;;7.45;77.29
77723;BME280;67811;42.656;23.394;2023-05-10T04:08:27;95311.13;;;7.37;75.62
77723;BME280;67811;42.656;23.394;2023-05-10T04:10:52;95316.28;;;7.55;75.87
77723;BME280;67811;42.656;23.394;2023-05-10T04:13:18;95313.59;;;7.47;74.79
77723;BME280;67811;42.656;23.394;2023-05-10T04:15:43;95314.25;;;7.40;75.38
77723;BME280;67811;42.656;23.394;2023-05-10T04:18:08;95315.88;;;7.42;75.58
77723;BME280;67811;42.656;23.394;2023-05-10T04:20:34;95323.03;;;7.49;74.43
77723;BME280;67811;42.656;23.394;2023-05-10T04:22:59;95319.03;;;7.45;75.26
77723;BME280;67811;42.656;23.394;2023-05-10T04:25:24;95332.09;;;7.55;75.72
77723;BME280;67811;42.656;23.394;2023-05-10T04:27:49;95325.53;;;7.59;77.13
77723;BME280;67811;42.656;23.394;2023-05-10T04:30:15;95315.97;;;7.74;75.83
77723;BME280;67811;42.656;23.394;2023-05-10T04:32:40;95327.19;;;7.68;76.37
77723;BME280;67811;42.656;23.394;2023-05-10T04:35:05;95318.97;;;7.71;74.85
77723;BME280;67811;42.656;23.394;2023-05-10T04:37:31;95321.78;;;7.78;75.10
77723;BME280;67811;42.656;23.394;2023-05-10T04:39:56;95325.06;;;7.21;76.70
77723;BME280;67811;42.656;23.394;2023-05-10T04:42:21;95329.56;;;7.03;77.43
77723;BME280;67811;42.656;23.394;2023-05-10T04:44:46;95328.81;;;6.84;78.15
77723;BME280;67811;42.656;23.394;2023-05-10T04:47:12;95328.81;;;6.84;78.87
77723;BME280;67811;42.656;23.394;2023-05-10T04:49:37;95324.63;;;6.74;79.08
77723;BME280;67811;42.656;23.394;2023-05-10T04:52:02;95328.41;;;6.71;79.26
77723;BME280;67811;42.656;23.394;2023-05-10T04:54:28;95325.06;;;6.61;79.00
77723;BME280;67811;42.656;23.394;2023-05-10T04:56:53;95324.44;;;6.67;79.51
77723;BME280;67811;42.656;23.394;2023-05-10T04:59:18;95336.31;;;6.71;79.72
77723;BME280;67811;42.656;23.394;2023-05-10T05:01:43;95317.16;;;6.61;78.90
77723;BME280;67811;42.656;23.394;2023-05-10T05:04:09;95321.44;;;6.62;79.90
77723;BME280;67811;42.656;23.394;2023-05-10T05:06:34;95326.16;;;6.76;80.20
77723;BME280;67811;42.656;23.394;2023-05-10T05:08:59;95322.81;;;7.00;78.73
77723;BME280;67811;42.656;23.394;2023-05-10T05:11:24;95322.25;;;6.89;78.60
77723;BME280;67811;42.656;23.394;2023-05-10T05:13:50;95326.38;;;6.91;78.35
77723;BME280;67811;42.656;23.394;2023-05-10T05:16:15;95329.59;;;6.77;78.23
77723;BME280;67811;42.656;23.394;2023-05-10T05:18:40;95327.69;;;6.87;78.92
77723;BME280;67811;42.656;23.394;2023-05-10T05:21:18;95333.78;;;6.88;79.15
77723;BME280;67811;42.656;23.394;2023-05-10T05:23:44;95322.72;;;6.84;79.10
77723;BME280;67811;42.656;23.394;2023-05-10T05:26:10;95330.25;;;6.79;79.25
77723;BME280;67811;42.656;23.394;2023-05-10T05:28:35;95333.78;;;6.88;79.62
77723;BME280;67811;42.656;23.394;2023-05-10T05:31:01;95326.69;;;6.88;79.44
77723;BME280;67811;42.656;23.394;2023-05-10T05:33:26;95327.16;;;6.83;78.59
77723;BME280;67811;42.656;23.394;2023-05-10T05:35:51;95350.59;;;6.69;79.60
77723;BME280;67811;42.656;23.394;2023-05-10T05:38:17;95345.69;;;6.74;80.01
77723;BME280;67811;42.656;23.394;2023-05-10T05:40:42;95341.13;;;6.76;80.12
77723;BME280;67811;42.656;23.394;2023-05-10T05:43:07;95344.09;;;6.81;80.17
77723;BME280;67811;42.656;23.394;2023-05-10T05:45:32;95345.78;;;6.82;79.81
77723;BME280;67811;42.656;23.394;2023-05-10T05:47:58;95341.94;;;6.76;80.35
77723;BME280;67811;42.656;23.394;2023-05-10T05:50:23;95344.63;;;6.84;81.53
77723;BME280;67811;42.656;23.394;2023-05-10T05:52:48;95345.34;;;6.95;81.68
77723;BME280;67811;42.656;23.394;2023-05-10T05:55:13;95345.63;;;6.92;80.76
77723;BME280;67811;42.656;23.394;2023-05-10T05:57:39;95351.53;;;6.85;81.03
77723;BME280;67811;42.656;23.394;2023-05-10T06:00:04;95351.59;;;6.94;81.48
77723;BME280;67811;42.656;23.394;2023-05-10T06:02:30;95350.31;;;6.98;81.21
77723;BME280;67811;42.656;23.394;2023-05-10T06:04:55;95358.97;;;6.90;80.97
77723;BME280;67811;42.656;23.394;2023-05-10T06:07:20;95355.50;;;6.90;81.34
77723;BME280;67811;42.656;23.394;2023-05-10T06:09:46;95349.63;;;6.96;81.94
77723;BME280;67811;42.656;23.394;2023-05-10T06:12:11;95347.81;;;6.96;80.42
77723;BME280;67811;42.656;23.394;2023-05-10T06:14:36;95351.22;;;6.89;80.38
77723;BME280;67811;42.656;23.394;2023-05-10T06:17:01;95359.16;;;6.97;81.44
77723;BME280;67811;42.656;23.394;2023-05-10T06:19:27;95359.50;;;6.94;79.49
77723;BME280;67811;42.656;23.394;2023-05-10T06:21:52;95354.22;;;6.94;80.37
77723;BME280;67811;42.656;23.394;2023-05-10T06:24:17;95353.91;;;6.97;79.80
77723;BME280;67811;42.656;23.394;2023-05-10T06:26:42;95353.91;;;6.97;80.31
77723;BME280;67811;42.656;23.394;2023-05-10T06:29:08;95362.25;;;6.92;79.74
77723;BME280;67811;42.656;23.394;2023-05-10T06:31:33;95372.88;;;7.00;80.15
77723;BME280;67811;42.656;23.394;2023-05-10T06:33:58;95370.06;;;7.02;80.13
77723;BME280;67811;42.656;23.394;2023-05-10T06:36:23;95368.13;;;7.04;78.25
77723;BME280;67811;42.656;23.394;2023-05-10T06:38:49;95366.16;;;7.06;78.53
77723;BME280;67811;42.656;23.394;2023-05-10T06:41:14;95369.41;;;7.00;78.32
77723;BME280;67811;42.656;23.394;2023-05-10T06:43:39;95368.16;;;7.12;78.71
77723;BME280;67811;42.656;23.394;2023-05-10T06:46:04;95369.66;;;7.15;78.66
77723;BME280;67811;42.656;23.394;2023-05-10T06:48:30;95364.06;;;7.18;78.10
77723;BME280;67811;42.656;23.394;2023-05-10T06:50:55;95358.13;;;7.16;77.80
77723;BME280;67811;42.656;23.394;2023-05-10T06:53:20;95357.16;;;7.17;77.41
77723;BME280;67811;42.656;23.394;2023-05-10T06:55:45;95363.75;;;7.21;76.30
77723;BME280;67811;42.656;23.394;2023-05-10T06:58:11;95367.44;;;7.36;77.32
77723;BME280;67811;42.656;23.394;2023-05-10T07:00:36;95371.03;;;7.27;77.27
77723;BME280;67811;42.656;23.394;2023-05-10T07:03:01;95367.72;;;7.25;75.35
77723;BME280;67811;42.656;23.394;2023-05-10T07:05:26;95358.88;;;7.34;75.97
77723;BME280;67811;42.656;23.394;2023-05-10T07:07:52;95379.31;;;7.32;74.29
77723;BME280;67811;42.656;23.394;2023-05-10T07:10:17;95369.75;;;7.31;74.66
77723;BME280;67811;42.656;23.394;2023-05-10T07:12:42;95367.59;;;7.34;75.27
77723;BME280;67811;42.656;23.394;2023-05-10T07:15:08;95371.41;;;7.40;75.69
77723;BME280;67811;42.656;23.394;2023-05-10T07:17:33;95364.66;;;7.37;73.93
77723;BME280;67811;42.656;23.394;2023-05-10T07:19:59;95364.19;;;7.42;73.28
77723;BME280;67811;42.656;23.394;2023-05-10T07:22:24;95367.78;;;7.41;74.14
77723;BME280;67811;42.656;23.394;2023-05-10T07:24:50;95381.19;;;7.48;74.72
77723;BME280;67811;42.656;23.394;2023-05-10T07:27:15;95369.97;;;7.46;73.32
77723;BME280;67811;42.656;23.394;2023-05-10T07:29:40;95366.03;;;7.50;72.59
77723;BME280;67811;42.656;23.394;2023-05-10T07:32:05;95380.56;;;7.54;73.51
77723;BME280;67811;42.656;23.394;2023-05-10T07:34:31;95373.94;;;7.50;73.46
77723;BME280;67811;42.656;23.394;2023-05-10T07:36:58;95383.66;;;7.49;73.30
77723;BME280;67811;42.656;23.394;2023-05-10T07:39:23;95378.56;;;7.56;72.74
77723;BME280;67811;42.656;23.394;2023-05-10T07:41:48;95391.94;;;7.62;72.84
77723;BME280;67811;42.656;23.394;2023-05-10T07:44:14;95395.03;;;7.50;72.08
77723;BME280;67811;42.656;23.394;2023-05-10T07:46:39;95383.66;;;7.49;73.15
77723;BME280;67811;42.656;23.394;2023-05-10T07:49:04;95399.44;;;7.41;72.69
77723;BME280;67811;42.656;23.394;2023-05-10T07:51:29;95388.47;;;7.54;74.45
77723;BME280;67811;42.656;23.394;2023-05-10T07:53:55;95383.53;;;7.59;72.61
77723;BME280;67811;42.656;23.394;2023-05-10T07:56:23;95378.81;;;7.71;72.98
77723;BME280;67811;42.656;23.394;2023-05-10T07:58:48;95392.81;;;7.71;72.41
77723;BME280;67811;42.656;23.394;2023-05-10T08:01:14;95396.41;;;7.62;72.02
77723;BME280;67811;42.656;23.394;2023-05-10T08:03:39;95396.59;;;7.69;72.16
77723;BME280;67811;42.656;23.394;2023-05-10T08:06:05;95393.59;;;7.63;71.35
77723;BME280;67811;42.656;23.394;2023-05-10T08:08:30;95380.63;;;7.70;71.95
77723;BME280;67811;42.656;23.394;2023-05-10T08:10:55;95378.34;;;7.75;72.40
77723;BME280;67811;42.656;23.394;2023-05-10T08:13:21;95393.34;;;7.83;72.13
77723;BME280;67811;42.656;23.394;2023-05-10T08:15:46;95377.69;;;7.81;71.48
77723;BME280;67811;42.656;23.394;2023-05-10T08:18:11;95384.25;;;7.77;71.90
77723;BME280;67811;42.656;23.394;2023-05-10T08:20:36;95399.78;;;7.88;71.82
77723;BME280;67811;42.656;23.394;2023-05-10T08:23:02;95389.25;;;7.88;71.57
77723;BME280;67811;42.656;23.394;2023-05-10T08:25:27;95396.84;;;7.91;71.99
77723;BME280;67811;42.656;23.394;2023-05-10T08:27:52;95407.22;;;7.93;72.76
77723;BME280;67811;42.656;23.394;2023-05-10T08:30:17;95397.50;;;8.02;71.84
77723;BME280;67811;42.656;23.394;2023-05-10T08:32:43;95401.28;;;7.91;72.26
77723;BME280;67811;42.656;23.394;2023-05-10T08:35:08;95400.31;;;7.92;72.22
77723;BME280;67811;42.656;23.394;2023-05-10T08:37:33;95396.50;;;7.95;72.52
77723;BME280;67811;42.656;23.394;2023-05-10T08:39:58;95403.47;;;8.12;73.34
77723;BME280;67811;42.656;23.394;2023-05-10T08:42:26;95407.31;;;8.26;72.69
77723;BME280;67811;42.656;23.394;2023-05-10T08:44:54;95401.53;;;8.14;72.95
77723;BME280;67811;42.656;23.394;2023-05-10T08:47:20;95410.22;;;8.06;73.43
77723;BME280;67811;42.656;23.394;2023-05-10T08:49:47;95386.13;;;7.93;72.84
77723;BME280;67811;42.656;23.394;2023-05-10T08:52:14;95404.13;;;7.98;74.22
77723;BME280;67811;42.656;23.394;2023-05-10T08:54:41;95398.97;;;7.96;73.62
77723;BME280;67811;42.656;23.394;2023-05-10T08:57:06;95405.25;;;7.95;72.99
77723;BME280;67811;42.656;23.394;2023-05-10T08:59:32;95400.97;;;7.94;73.64
77723;BME280;67811;42.656;23.394;2023-05-10T09:01:57;95401.31;;;8.07;75.53
77723;BME280;67811;42.656;23.394;2023-05-10T09:04:23;95391.94;;;8.29;75.30
77723;BME280;67811;42.656;23.394;2023-05-10T09:06:49;95402.84;;;8.34;73.50
77723;BME280;67811;42.656;23.394;2023-05-10T09:09:15;95403.50;;;8.28;72.28
77723;BME280;67811;42.656;23.394;2023-05-10T09:11:40;95404.66;;;8.26;72.77
77723;BME280;67811;42.656;23.394;2023-05-10T09:14:06;95396.59;;;8.19;72.12
77723;BME280;67811;42.656;23.394;2023-05-10T09:16:32;95391.19;;;8.37;74.15
77723;BME280;67811;42.656;23.394;2023-05-10T09:18:57;95403.72;;;8.43;72.88
77723;BME280;67811;42.656;23.394;2023-05-10T09:21:22;95390.03;;;8.39;72.69
77723;BME280;67811;42.656;23.394;2023-05-10T09:23:48;95385.41;;;8.41;73.58
77723;BME280;67811;42.656;23.394;2023-05-10T09:26:13;95398.28;;;8.44;73.44
77723;BME280;67811;42.656;23.394;2023-05-10T09:28:52;95392.34;;;8.59;75.28
77723;BME280;67811;42.656;23.394;2023-05-10T09:31:18;95400.44;;;8.65;74.39
77723;BME280;67811;42.656;23.394;2023-05-10T09:33:47;95381.47;;;8.70;73.50
77723;BME280;67811;42.656;23.394;2023-05-10T09:36:13;95388.38;;;8.71;73.47
77723;BME280;67811;42.656;23.394;2023-05-10T09:38:49;95375.00;;;8.97;73.66
77723;BME280;67811;42.656;23.394;2023-05-10T09:41:19;95375.28;;;9.10;73.01
77723;BME280;67811;42.656;23.394;2023-05-10T09:43:44;95386.53;;;9.12;72.57
77723;BME280;67811;42.656;23.394;2023-05-10T09:46:10;95377.59;;;9.05;72.48
77723;BME280;67811;42.656;23.394;2023-05-10T09:48:41;95382.41;;;9.10;71.13
77723;BME280;67811;42.656;23.394;2023-05-10T09:51:07;95384.09;;;8.78;71.35
77723;BME280;67811;42.656;23.394;2023-05-10T09:53:32;95380.13;;;8.82;72.96
77723;BME280;67811;42.656;23.394;2023-05-10T09:55:58;95378.97;;;8.93;71.71
77723;BME280;67811;42.656;23.394;2023-05-10T09:58:23;95375.31;;;9.02;70.96
77723;BME280;67811;42.656;23.394;2023-05-10T10:00:48;95371.34;;;8.98;70.06
77723;BME280;67811;42.656;23.394;2023-05-10T10:03:15;95374.16;;;8.96;71.30
77723;BME280;67811;42.656;23.394;2023-05-10T10:05:42;95373.50;;;9.03;69.65
77723;BME280;67811;42.656;23.394;2023-05-10T10:08:07;95360.94;;;8.88;69.79
77723;BME280;67811;42.656;23.394;2023-05-10T10:10:33;95357.81;;;8.93;69.28
77723;BME280;67811;42.656;23.394;2023-05-10T10:12:59;95357.31;;;8.89;70.48
77723;BME280;67811;42.656;23.394;2023-05-10T10:15:25;95369.03;;;8.95;69.67
77723;BME280;67811;42.656;23.394;2023-05-10T10:17:51;95356.50;;;8.97;68.99
77723;BME280;67811;42.656;23.394;2023-05-10T10:20:18;95353.19;;;9.03;69.13
77723;BME280;67811;42.656;23.394;2023-05-10T10:22:44;95350.03;;;9.08;68.71
77723;BME280;67811;42.656;23.394;2023-05-10T10:25:14;95355.09;;;9.26;69.46
77723;BME280;67811;42.656;23.394;2023-05-10T10:30:41;95354.13;;;9.10;68.50
77723;BME280;67811;42.656;23.394;2023-05-10T10:35:55;95359.94;;;9.06;69.03
77723;BME280;67811;42.656;23.394;2023-05-10T10:38:22;95350.34;;;9.05;68.87
77723;BME280;67811;42.656;23.394;2023-05-10T10:40:48;95361.38;;;9.16;68.40
77723;BME280;67811;42.656;23.394;2023-05-10T10:43:27;95373.09;;;9.22;68.09
77723;BME280;67811;42.656;23.394;2023-05-10T10:46:15;95363.47;;;9.37;69.93
77723;BME280;67811;42.656;23.394;2023-05-10T10:48:43;95358.56;;;9.26;68.07
77723;BME280;67811;42.656;23.394;2023-05-10T10:51:13;95359.09;;;9.05;69.08
77723;BME280;67811;42.656;23.394;2023-05-10T10:53:39;95361.06;;;9.11;69.75
77723;BME280;67811;42.656;23.394;2023-05-10T10:56:07;95354.81;;;9.12;70.73
77723;BME280;67811;42.656;23.394;2023-05-10T10:58:33;95363.34;;;9.22;70.05
77723;BME280;67811;42.656;23.394;2023-05-10T11:01:16;95367.31;;;9.27;70.25
77723;BME280;67811;42.656;23.394;2023-05-10T11:06:40;95363.38;;;9.14;69.82
77723;BME280;67811;42.656;23.394;2023-05-10T11:09:07;95372.16;;;9.15;70.11
77723;BME280;67811;42.656;23.394;2023-05-10T11:11:34;95356.28;;;9.15;70.11
77723;BME280;67811;42.656;23.394;2023-05-10T11:14:04;95363.53;;;9.21;70.17
77723;BME280;67811;42.656;23.394;2023-05-10T11:16:41;95366.50;;;9.26;69.22
77723;BME280;67811;42.656;23.394;2023-05-10T11:19:07;95369.13;;;9.34;69.66
77723;BME280;67811;42.656;23.394;2023-05-10T11:21:34;95351.25;;;9.36;69.92
77723;BME280;67811;42.656;23.394;2023-05-10T11:24:13;95345.78;;;9.46;70.19
77723;BME280;67811;42.656;23.394;2023-05-10T11:26:39;95349.94;;;9.40;69.27
77723;BME280;67811;42.656;23.394;2023-05-10T11:29:05;95368.28;;;9.42;69.04
77723;BME280;67811;42.656;23.394;2023-05-10T11:31:31;95366.63;;;9.33;69.57
77723;BME280;67811;42.656;23.394;2023-05-10T11:33:57;95352.22;;;9.43;70.33
77723;BME280;67811;42.656;23.394;2023-05-10T11:36:27;95363.75;;;9.59;68.95
77723;BME280;67811;42.656;23.394;2023-05-10T11:38:54;95356.75;;;9.66;68.86
77723;BME280;67811;42.656;23.394;2023-05-10T11:41:20;95357.44;;;9.60;68.33
77723;BME280;67811;42.656;23.394;2023-05-10T11:43:46;95359.41;;;9.66;67.76
77723;BME280;67811;42.656;23.394;2023-05-10T11:46:13;95355.63;;;9.60;68.30
77723;BME280;67811;42.656;23.394;2023-05-10T11:48:39;95353.66;;;9.54;67.81
77723;BME280;67811;42.656;23.394;2023-05-10T11:51:06;95360.09;;;9.60;68.07
77723;BME280;67811;42.656;23.394;2023-05-10T11:53:33;95354.84;;;9.52;68.26
77723;BME280;67811;42.656;23.394;2023-05-10T11:56:09;95356.50;;;9.53;68.30
77723;BME280;67811;42.656;23.394;2023-05-10T11:58:35;95363.16;;;9.40;69.44
77723;BME280;67811;42.656;23.394;2023-05-10T12:01:01;95344.34;;;9.35;70.56
77723;BME280;67811;42.656;23.394;2023-05-10T12:03:27;95346.97;;;9.27;71.18
77723;BME280;67811;42.656;23.394;2023-05-10T12:05:54;95354.09;;;9.27;71.47
77723;BME280;67811;42.656;23.394;2023-05-10T12:08:22;95350.00;;;9.16;70.87
77723;BME280;67811;42.656;23.394;2023-05-10T12:10:47;95348.50;;;9.21;71.16
77723;BME280;67811;42.656;23.394;2023-05-10T12:13:14;95355.78;;;9.19;71.18
77723;BME280;67811;42.656;23.394;2023-05-10T12:15:39;95345.16;;;9.28;71.48
77723;BME280;67811;42.656;23.394;2023-05-10T12:18:04;95352.13;;;9.29;70.89
77723;BME280;67811;42.656;23.394;2023-05-10T12:20:30;95334.41;;;9.37;71.05
77723;BME280;67811;42.656;23.394;2023-05-10T12:22:57;95333.50;;;9.53;71.31
77723;BME280;67811;42.656;23.394;2023-05-10T12:25:24;95335.34;;;9.53;70.09
77723;BME280;67811;42.656;23.394;2023-05-10T12:27:56;95335.47;;;9.59;70.86
77723;BME280;67811;42.656;23.394;2023-05-10T12:30:26;95321.09;;;9.62;68.86
77723;BME280;67811;42.656;23.394;2023-05-10T12:32:52;95334.31;;;9.54;69.44
77723;BME280;67811;42.656;23.394;2023-05-10T12:35:18;95327.41;;;9.44;69.23
77723;BME280;67811;42.656;23.394;2023-05-10T12:37:44;95324.56;;;9.62;69.89
77723;BME280;67811;42.656;23.394;2023-05-10T12:40:10;95326.66;;;9.67;70.35
77723;BME280;67811;42.656;23.394;2023-05-10T12:42:37;95327.19;;;9.62;68.98
77723;BME280;67811;42.656;23.394;2023-05-10T12:45:04;95339.28;;;9.57;68.89
77723;BME280;67811;42.656;23.394;2023-05-10T12:47:29;95324.75;;;9.53;69.31
77723;BME280;67811;42.656;23.394;2023-05-10T12:49:55;95324.69;;;9.61;69.57
77723;BME280;67811;42.656;23.394;2023-05-10T12:52:20;95316.44;;;9.64;69.37
77723;BME280;67811;42.656;23.394;2023-05-10T12:54:46;95313.16;;;9.62;69.89
77723;BME280;67811;42.656;23.394;2023-05-10T12:57:11;95321.09;;;9.54;68.72
77723;BME280;67811;42.656;23.394;2023-05-10T12:59:36;95305.41;;;9.52;69.35
77723;BME280;67811;42.656;23.394;2023-05-10T13:02:01;95311.84;;;9.58;69.27
77723;BME280;67811;42.656;23.394;2023-05-10T13:04:27;95302.56;;;9.62;69.69
77723;BME280;67811;42.656;23.394;2023-05-10T13:06:52;95301.16;;;9.74;69.59
77723;BME280;67811;42.656;23.394;2023-05-10T13:09:17;95298.00;;;9.79;68.76
77723;BME280;67811;42.656;23.394;2023-05-10T13:11:43;95291.72;;;9.71;68.35
77723;BME280;67811;42.656;23.394;2023-05-10T13:14:08;95297.81;;;9.80;68.78
77723;BME280;67811;42.656;23.394;2023-05-10T13:16:33;95292.00;;;9.85;68.67
77723;BME280;67811;42.656;23.394;2023-05-10T13:18:58;95296.88;;;9.73;68.45
77723;BME280;67811;42.656;23.394;2023-05-10T13:21:24;95299.94;;;9.85;68.83
77723;BME280;67811;42.656;23.394;2023-05-10T13:23:49;95296.41;;;9.92;68.85